createdAt,value
2019-03-19T00:00:34.341Z,101602.91
2019-03-19T00:03:00.672Z,101606.64
2019-03-19T00:05:26.730Z,101600.75
2019-03-19T00:07:52.825Z,101596.30
2019-03-19T00:10:18.940Z,101601.51
2019-03-19T00:12:46.130Z,101607.99
2019-03-19T00:15:12.415Z,101606.71
2019-03-19T00:17:38.489Z,101608.30
2019-03-19T00:20:08.383Z,101604.87
2019-03-19T00:22:34.447Z,101600.56
2019-03-19T00:25:00.545Z,101609.64
2019-03-19T00:27:26.686Z,101609.34
2019-03-19T00:29:52.883Z,101606.31
2019-03-19T00:32:18.973Z,101605.19
2019-03-19T00:34:45.215Z,101611.12
2019-03-19T00:37:11.310Z,101610.06
2019-03-19T00:39:37.396Z,101624.47
2019-03-19T00:42:03.551Z,101625.17
2019-03-19T00:44:29.785Z,101639.44
2019-03-19T00:46:55.940Z,101643.40
2019-03-19T00:49:22.007Z,101638.91
2019-03-19T00:51:48.137Z,101639.39
2019-03-19T00:54:14.243Z,101644.50
2019-03-19T00:56:40.335Z,101647.79
2019-03-19T00:59:06.648Z,101642.42
2019-03-19T01:01:32.756Z,101650.69
2019-03-19T01:03:58.820Z,101654.05
2019-03-19T01:06:24.998Z,101653.25
2019-03-19T01:08:51.148Z,101657.87
2019-03-19T01:11:17.225Z,101671.19
2019-03-19T01:13:43.337Z,101674.55
2019-03-19T01:16:09.520Z,101673.25
2019-03-19T01:18:35.729Z,101676.84
2019-03-19T01:21:02.027Z,101666.85
2019-03-19T01:23:28.414Z,101663.00
2019-03-19T01:25:55.829Z,101662.25
2019-03-19T01:28:22.177Z,101667.67
2019-03-19T01:30:48.279Z,101672.03
2019-03-19T01:33:14.372Z,101678.67
2019-03-19T01:35:40.471Z,101662.55
2019-03-19T01:38:06.539Z,101669.20
2019-03-19T01:40:32.638Z,101673.05
2019-03-19T01:42:58.701Z,101669.70
2019-03-19T01:45:24.995Z,101663.84
2019-03-19T01:47:51.204Z,101666.38
2019-03-19T01:50:17.383Z,101660.89
2019-03-19T01:52:43.606Z,101668.44
2019-03-19T01:55:14.296Z,101667.68
2019-03-19T01:57:42.002Z,101673.81
2019-03-19T02:00:15.648Z,101676.37
2019-03-19T02:02:41.789Z,101680.70
2019-03-19T02:05:08.118Z,101684.05
2019-03-19T02:07:34.169Z,101688.41
2019-03-19T02:10:00.440Z,101684.33
2019-03-19T02:12:26.643Z,101682.64
2019-03-19T02:14:52.959Z,101676.23
2019-03-19T02:17:19.050Z,101684.42
2019-03-19T02:19:47.886Z,101685.20
2019-03-19T02:22:14.099Z,101683.54
2019-03-19T02:24:40.190Z,101693.68
2019-03-19T02:27:06.286Z,101692.76
2019-03-19T02:29:32.384Z,101688.17
2019-03-19T02:31:58.489Z,101697.89
2019-03-19T02:34:24.559Z,101704.81
2019-03-19T02:36:50.694Z,101705.05
2019-03-19T02:39:16.835Z,101709.39
2019-03-19T02:41:42.930Z,101703.51
2019-03-19T02:44:09.036Z,101708.09
2019-03-19T02:46:35.161Z,101707.07
2019-03-19T02:49:02.517Z,101715.48
2019-03-19T02:51:28.615Z,101709.64
2019-03-19T02:53:54.691Z,101719.05
2019-03-19T02:56:32.760Z,101728.09
2019-03-19T02:58:48.819Z,101723.09
2019-03-19T03:01:15.022Z,101735.91
2019-03-19T03:03:41.080Z,101736.14
2019-03-19T03:06:07.165Z,101738.46
2019-03-19T03:08:33.255Z,101744.88
2019-03-19T03:10:59.805Z,101745.67
2019-03-19T03:13:25.938Z,101748.72
2019-03-19T03:15:51.997Z,101749.52
2019-03-19T03:18:18.266Z,101752.59
2019-03-19T03:20:44.486Z,101749.67
2019-03-19T03:23:10.658Z,101761.66
2019-03-19T03:25:36.735Z,101755.41
2019-03-19T03:28:03.135Z,101761.63
2019-03-19T03:30:29.339Z,101764.70
2019-03-19T03:32:55.453Z,101765.44
2019-03-19T03:35:21.669Z,101766.99
2019-03-19T03:37:47.925Z,101773.36
2019-03-19T03:40:15.222Z,101767.83
2019-03-19T03:42:43.110Z,101767.26
2019-03-19T03:45:11.155Z,101763.42
2019-03-19T03:47:37.458Z,101762.98
2019-03-19T03:50:15.359Z,101766.16
2019-03-19T03:52:41.448Z,101769.84
2019-03-19T03:55:11.371Z,101770.47
2019-03-19T03:57:37.660Z,101772.16
2019-03-19T04:00:13.201Z,101777.06
2019-03-19T04:02:39.259Z,101787.38
2019-03-19T04:05:06.460Z,101777.50
2019-03-19T04:07:32.651Z,101788.73
2019-03-19T04:09:58.824Z,101782.19
2019-03-19T04:12:24.925Z,101782.14
2019-03-19T04:14:51.102Z,101790.08
2019-03-19T04:17:17.294Z,101791.59
2019-03-19T04:19:43.390Z,101790.86
2019-03-19T04:22:09.545Z,101794.73
2019-03-19T04:24:35.839Z,101796.27
2019-03-19T04:27:14.886Z,101789.87
2019-03-19T04:29:30.217Z,101800.45
2019-03-19T04:31:56.315Z,101803.98
2019-03-19T04:34:22.373Z,101805.57
2019-03-19T04:36:48.474Z,101807.98
2019-03-19T04:39:14.631Z,101816.06
2019-03-19T04:41:40.729Z,101815.91
2019-03-19T04:44:06.864Z,101812.89
2019-03-19T04:46:32.920Z,101817.62
2019-03-19T04:48:58.985Z,101819.02
2019-03-19T04:51:25.083Z,101823.66
2019-03-19T04:53:51.187Z,101825.17
2019-03-19T04:56:17.281Z,101831.52
2019-03-19T04:58:43.365Z,101824.52
2019-03-19T05:01:09.448Z,101829.12
2019-03-19T05:03:35.531Z,101832.26
2019-03-19T05:06:01.775Z,101834.81
2019-03-19T05:08:27.880Z,101830.36
2019-03-19T05:10:54.060Z,101831.02
2019-03-19T05:13:20.189Z,101827.19
2019-03-19T05:15:46.281Z,101826.30
2019-03-19T05:18:12.369Z,101838.84
2019-03-19T05:20:38.566Z,101848.64
2019-03-19T05:23:04.767Z,101845.97
2019-03-19T05:25:30.954Z,101844.92
2019-03-19T05:27:57.069Z,101848.10
2019-03-19T05:30:23.239Z,101844.03
2019-03-19T05:32:49.463Z,101840.39
2019-03-19T05:35:15.619Z,101842.95
2019-03-19T05:37:42.838Z,101844.89
2019-03-19T05:40:10.751Z,101847.88
2019-03-19T05:42:37.039Z,101854.77
2019-03-19T05:45:07.551Z,101855.92
2019-03-19T05:47:38.266Z,101861.19
2019-03-19T05:50:01.846Z,101860.89
2019-03-19T05:52:28.046Z,101869.88
2019-03-19T05:54:54.150Z,101871.61
2019-03-19T05:57:20.263Z,101878.00
2019-03-19T05:59:46.332Z,101881.56
2019-03-19T06:02:12.557Z,101878.50
2019-03-19T06:04:39.004Z,101882.04
2019-03-19T06:07:05.276Z,101884.20
2019-03-19T06:09:31.528Z,101880.91
2019-03-19T06:11:57.627Z,101880.61
2019-03-19T06:14:23.747Z,101888.59
2019-03-19T06:16:49.820Z,101900.83
2019-03-19T06:19:15.959Z,101903.12
2019-03-19T06:21:42.086Z,101904.74
2019-03-19T06:24:08.290Z,101909.45
2019-03-19T06:26:34.505Z,101918.44
2019-03-19T06:29:00.601Z,101919.30
2019-03-19T06:31:26.694Z,101921.94
2019-03-19T06:33:52.800Z,101926.19
2019-03-19T06:36:18.918Z,101923.41
2019-03-19T06:38:45.021Z,101931.65
2019-03-19T06:41:11.138Z,101923.96
2019-03-19T06:43:37.279Z,101933.53
2019-03-19T06:46:03.544Z,101933.20
2019-03-19T06:48:29.712Z,101941.20
2019-03-19T06:50:55.832Z,101943.66
2019-03-19T06:53:22.109Z,101951.13
2019-03-19T06:55:48.355Z,101950.44
2019-03-19T06:58:14.435Z,101953.66
2019-03-19T07:00:40.643Z,101953.66
2019-03-19T07:03:06.847Z,101961.49
2019-03-19T07:05:32.950Z,101961.59
2019-03-19T07:07:59.041Z,101971.70
2019-03-19T07:10:25.175Z,101970.45
2019-03-19T07:12:51.268Z,101968.88
2019-03-19T07:15:19.681Z,101967.76
2019-03-19T07:17:46.001Z,101966.63
2019-03-19T07:20:23.061Z,101969.80
2019-03-19T07:22:49.253Z,101972.56
2019-03-19T07:25:15.756Z,101977.78
2019-03-19T07:27:42.118Z,101975.73
2019-03-19T07:30:11.731Z,101983.31
2019-03-19T07:32:37.839Z,101986.76
2019-03-19T07:35:04.275Z,101987.27
2019-03-19T07:37:30.355Z,101977.06
2019-03-19T07:39:56.536Z,101990.39
2019-03-19T07:42:22.649Z,101991.37
2019-03-19T07:44:48.714Z,101993.81
2019-03-19T07:47:14.852Z,101997.55
2019-03-19T07:49:40.971Z,101998.73
2019-03-19T07:52:07.172Z,102000.09
2019-03-19T07:54:33.240Z,102012.89
2019-03-19T07:56:59.338Z,102008.73
2019-03-19T07:59:25.490Z,102010.86
2019-03-19T08:01:51.576Z,102011.66
2019-03-19T08:04:17.683Z,102012.44
2019-03-19T08:06:43.910Z,102021.57
2019-03-19T08:09:10.102Z,102023.30
2019-03-19T08:11:36.183Z,102018.61
2019-03-19T08:14:02.523Z,102018.48
2019-03-19T08:16:28.607Z,102016.25
2019-03-19T08:18:54.922Z,102019.30
2019-03-19T08:21:22.566Z,102025.27
2019-03-19T08:23:49.077Z,102019.07
2019-03-19T08:26:15.169Z,102025.91
2019-03-19T08:28:41.348Z,102027.35
2019-03-19T08:31:07.464Z,102033.28
2019-03-19T08:33:33.528Z,102034.23
2019-03-19T08:36:09.031Z,102029.86
2019-03-19T08:38:28.059Z,102029.02
2019-03-19T08:40:54.268Z,102038.42
2019-03-19T08:43:20.617Z,102045.52
2019-03-19T08:45:46.789Z,102040.39
2019-03-19T08:48:12.936Z,102042.86
2019-03-19T08:50:39.016Z,102039.55
2019-03-19T08:53:05.421Z,102044.63
2019-03-19T08:55:31.507Z,102051.13
2019-03-19T08:57:57.614Z,102053.30
2019-03-19T09:00:25.678Z,102050.94
2019-03-19T09:02:51.973Z,102050.56
2019-03-19T09:05:18.233Z,102050.41
2019-03-19T09:07:44.450Z,102052.71
2019-03-19T09:10:12.221Z,102045.05
2019-03-19T09:12:38.461Z,102050.63
2019-03-19T09:15:10.383Z,102049.61
2019-03-19T09:17:36.808Z,102046.10
2019-03-19T09:20:13.535Z,102046.16
2019-03-19T09:22:40.883Z,102041.23
2019-03-19T09:25:08.738Z,102049.05
2019-03-19T09:27:34.951Z,102056.39
2019-03-19T09:30:01.131Z,102057.45
2019-03-19T09:32:27.320Z,102059.76
2019-03-19T09:34:53.437Z,102063.75
2019-03-19T09:37:19.614Z,102061.67
2019-03-19T09:39:45.740Z,102060.66
2019-03-19T09:42:11.931Z,102062.34
2019-03-19T09:44:38.079Z,102062.12
2019-03-19T09:47:04.248Z,102067.05
2019-03-19T09:49:30.370Z,102057.55
2019-03-19T09:51:56.553Z,102050.30
2019-03-19T09:54:22.671Z,102049.99
2019-03-19T09:56:48.900Z,102062.42
2019-03-19T09:59:15.104Z,102063.84
2019-03-19T10:01:41.310Z,102060.43
2019-03-19T10:04:07.490Z,102056.59
2019-03-19T10:06:33.710Z,102051.33
2019-03-19T10:08:59.787Z,102055.35
2019-03-19T10:11:26.004Z,102066.83
2019-03-19T10:13:52.279Z,102057.92
2019-03-19T10:16:18.379Z,102063.64
2019-03-19T10:18:44.464Z,102059.34
2019-03-19T10:21:10.669Z,102058.33
2019-03-19T10:23:36.769Z,102057.72
2019-03-19T10:26:03.057Z,102066.20
2019-03-19T10:28:29.200Z,102065.17
2019-03-19T10:30:55.309Z,102068.83
2019-03-19T10:33:21.416Z,102067.90
2019-03-19T10:35:47.699Z,102067.14
2019-03-19T10:38:14.000Z,102081.69
2019-03-19T10:40:40.210Z,102077.97
2019-03-19T10:43:06.823Z,102085.41
2019-03-19T10:45:33.027Z,102083.08
2019-03-19T10:47:59.219Z,102080.08
2019-03-19T10:50:26.339Z,102085.62
2019-03-19T10:52:53.735Z,102083.69
2019-03-19T10:55:20.168Z,102083.45
2019-03-19T10:57:46.585Z,102085.22
2019-03-19T11:00:15.668Z,102079.19
2019-03-19T11:02:41.903Z,102085.47
2019-03-19T11:05:10.671Z,102080.49
2019-03-19T11:07:36.794Z,102090.85
2019-03-19T11:10:07.063Z,102089.62
2019-03-19T11:12:33.161Z,102079.02
2019-03-19T11:14:59.374Z,102090.98
2019-03-19T11:17:25.605Z,102088.85
2019-03-19T11:19:51.685Z,102086.52
2019-03-19T11:22:17.933Z,102090.86
2019-03-19T11:24:44.030Z,102089.34
2019-03-19T11:27:10.202Z,102098.34
2019-03-19T11:29:36.320Z,102085.91
2019-03-19T11:32:02.519Z,102092.22
2019-03-19T11:34:28.647Z,102090.22
2019-03-19T11:36:57.981Z,102094.78
2019-03-19T11:39:22.860Z,102092.83
2019-03-19T11:41:48.932Z,102089.30
2019-03-19T11:44:15.050Z,102078.58
2019-03-19T11:46:41.206Z,102081.63
2019-03-19T11:49:07.546Z,102086.96
2019-03-19T11:51:33.728Z,102087.17
2019-03-19T11:53:59.993Z,102095.02
2019-03-19T11:56:26.264Z,102092.98
2019-03-19T11:58:52.438Z,102085.67
2019-03-19T12:01:18.575Z,102093.30
2019-03-19T12:03:44.776Z,102086.75
2019-03-19T12:06:10.903Z,102082.11
2019-03-19T12:08:36.979Z,102087.08
2019-03-19T12:11:03.397Z,102074.63
2019-03-19T12:13:29.713Z,102076.92
2019-03-19T12:15:55.970Z,102078.91
2019-03-19T12:18:22.232Z,102081.52
2019-03-19T12:20:48.525Z,102092.69
2019-03-19T12:23:14.752Z,102085.04
2019-03-19T12:25:40.945Z,102080.86
2019-03-19T12:28:07.275Z,102083.69
2019-03-19T12:30:33.580Z,102087.80
2019-03-19T12:32:59.912Z,102086.02
2019-03-19T12:35:26.068Z,102083.21
2019-03-19T12:37:52.319Z,102085.40
2019-03-19T12:40:22.406Z,102085.80
2019-03-19T12:42:48.624Z,102092.03
2019-03-19T12:45:16.019Z,102091.95
2019-03-19T12:47:42.323Z,102091.86
2019-03-19T12:50:15.166Z,102089.36
2019-03-19T12:52:41.381Z,102081.41
2019-03-19T12:55:08.183Z,102071.09
2019-03-19T12:57:34.488Z,102081.39
2019-03-19T13:00:00.664Z,102082.13
2019-03-19T13:02:27.022Z,102084.31
2019-03-19T13:04:53.142Z,102085.45
2019-03-19T13:07:19.274Z,102082.73
2019-03-19T13:09:45.392Z,102082.63
2019-03-19T13:12:11.596Z,102099.47
2019-03-19T13:14:37.930Z,102093.82
2019-03-19T13:17:04.148Z,102096.38
2019-03-19T13:19:30.263Z,102095.91
2019-03-19T13:21:56.494Z,102085.62
2019-03-19T13:24:22.630Z,102093.52
2019-03-19T13:26:48.922Z,102090.91
2019-03-19T13:29:15.123Z,102084.94
2019-03-19T13:31:41.226Z,102086.20
2019-03-19T13:34:07.357Z,102089.81
2019-03-19T13:36:33.567Z,102094.03
2019-03-19T13:38:59.873Z,102082.47
2019-03-19T13:41:26.101Z,102083.17
2019-03-19T13:43:52.219Z,102083.17
2019-03-19T13:46:18.320Z,102081.13
2019-03-19T13:48:44.469Z,102081.67
2019-03-19T13:51:10.640Z,102080.95
2019-03-19T13:53:36.852Z,102079.65
2019-03-19T13:56:03.042Z,102081.09
2019-03-19T13:58:29.229Z,102086.97
2019-03-19T14:00:56.003Z,102083.18
2019-03-19T14:03:22.223Z,102085.41
2019-03-19T14:05:48.476Z,102090.13
2019-03-19T14:08:14.644Z,102096.22
2019-03-19T14:10:40.884Z,102093.34
2019-03-19T14:13:07.174Z,102096.56
2019-03-19T14:15:33.305Z,102091.73
2019-03-19T14:17:59.371Z,102075.38
2019-03-19T14:20:25.593Z,102081.94
2019-03-19T14:22:51.895Z,102081.61
2019-03-19T14:25:18.287Z,102080.63
2019-03-19T14:27:44.631Z,102092.21
2019-03-19T14:30:18.732Z,102096.69
2019-03-19T14:32:45.058Z,102087.34
2019-03-19T14:35:11.230Z,102082.98
2019-03-19T14:37:37.665Z,102083.89
2019-03-19T14:40:10.254Z,102083.62
2019-03-19T14:42:36.493Z,102081.22
2019-03-19T14:45:05.417Z,102092.48
2019-03-19T14:47:31.668Z,102094.02
2019-03-19T14:49:57.947Z,102092.77
2019-03-19T14:52:24.169Z,102091.81
2019-03-19T14:54:50.272Z,102095.33
2019-03-19T14:57:16.582Z,102096.31
2019-03-19T14:59:42.703Z,102087.65
2019-03-19T15:02:08.880Z,102083.59
2019-03-19T15:04:34.999Z,102090.05
2019-03-19T15:07:01.221Z,102086.52
2019-03-19T15:09:27.368Z,102083.12
2019-03-19T15:11:53.518Z,102086.68
2019-03-19T15:14:19.725Z,102090.19
2019-03-19T15:16:45.971Z,102087.23
2019-03-19T15:19:12.252Z,102083.58
2019-03-19T15:21:38.592Z,102080.78
2019-03-19T15:24:04.657Z,102088.08
2019-03-19T15:26:31.896Z,102096.11
2019-03-19T15:28:58.081Z,102090.25
2019-03-19T15:31:29.825Z,102085.00
2019-03-19T15:33:52.400Z,102085.23
2019-03-19T15:36:18.532Z,102086.20
2019-03-19T15:38:44.594Z,102088.63
2019-03-19T15:41:10.829Z,102089.50
2019-03-19T15:43:37.965Z,102088.81
2019-03-19T15:46:04.241Z,102092.16
2019-03-19T15:48:30.470Z,102095.80
2019-03-19T15:50:56.571Z,102091.17
2019-03-19T15:53:22.678Z,102098.14
2019-03-19T15:55:48.769Z,102097.22
2019-03-19T15:58:15.036Z,102103.23
2019-03-19T16:00:41.244Z,102102.91
2019-03-19T16:03:07.437Z,102104.08
2019-03-19T16:05:33.654Z,102099.05
2019-03-19T16:07:59.915Z,102098.40
2019-03-19T16:10:27.134Z,102099.09
2019-03-19T16:12:53.484Z,102104.13
2019-03-19T16:15:20.817Z,102105.56
2019-03-19T16:17:48.242Z,102097.66
2019-03-19T16:20:15.650Z,102099.46
2019-03-19T16:22:41.860Z,102103.84
2019-03-19T16:25:08.189Z,102107.67
2019-03-19T16:27:34.388Z,102108.30
2019-03-19T16:30:00.598Z,102115.19
2019-03-19T16:32:26.702Z,102112.41
2019-03-19T16:34:52.845Z,102108.39
2019-03-19T16:37:18.933Z,102115.72
2019-03-19T16:39:45.077Z,102117.10
2019-03-19T16:42:11.293Z,102115.80
2019-03-19T16:44:38.524Z,102120.03
2019-03-19T16:47:04.843Z,102123.06
2019-03-19T16:49:30.938Z,102122.66
2019-03-19T16:51:57.157Z,102124.17
2019-03-19T16:54:23.285Z,102130.53
2019-03-19T16:56:49.486Z,102129.36
2019-03-19T16:59:15.735Z,102139.42
2019-03-19T17:01:42.149Z,102139.78
2019-03-19T17:04:08.436Z,102143.00
2019-03-19T17:06:34.570Z,102145.08
2019-03-19T17:09:00.899Z,102147.69
2019-03-19T17:11:27.075Z,102146.53
2019-03-19T17:13:53.277Z,102153.52
2019-03-19T17:16:19.513Z,102155.13
2019-03-19T17:18:45.649Z,102158.47
2019-03-19T17:21:11.853Z,102160.98
2019-03-19T17:23:37.989Z,102161.75
2019-03-19T17:26:04.339Z,102169.89
2019-03-19T17:28:30.652Z,102165.34
2019-03-19T17:30:57.308Z,102161.03
2019-03-19T17:33:23.554Z,102167.12
2019-03-19T17:35:49.867Z,102163.79
2019-03-19T17:38:16.092Z,102168.55
2019-03-19T17:40:42.331Z,102168.28
2019-03-19T17:43:08.660Z,102168.28
2019-03-19T17:45:34.771Z,102168.23
2019-03-19T17:48:01.183Z,102176.13
2019-03-19T17:50:29.324Z,102175.81
2019-03-19T17:52:55.738Z,102170.45
2019-03-19T17:55:22.086Z,102177.30
2019-03-19T17:57:48.311Z,102177.37
2019-03-19T18:00:17.858Z,102182.20
2019-03-19T18:02:44.296Z,102176.67
2019-03-19T18:07:53.199Z,102174.59
2019-03-19T18:10:19.508Z,102181.32
2019-03-19T18:12:45.786Z,102182.47
2019-03-19T18:15:15.713Z,102188.58
2019-03-19T18:17:41.927Z,102185.61
2019-03-19T18:20:10.570Z,102194.20
2019-03-19T18:22:36.922Z,102194.78
2019-03-19T18:25:04.364Z,102195.17
2019-03-19T18:27:30.517Z,102204.23
2019-03-19T18:29:56.800Z,102202.53
2019-03-19T18:32:22.944Z,102206.91
2019-03-19T18:34:49.157Z,102214.73
2019-03-19T18:37:15.475Z,102219.14
2019-03-19T18:39:41.633Z,102221.30
2019-03-19T18:42:07.820Z,102221.45
2019-03-19T18:44:34.006Z,102218.06
2019-03-19T18:47:00.182Z,102216.48
2019-03-19T18:49:26.396Z,102221.98
2019-03-19T18:51:52.625Z,102213.53
2019-03-19T18:54:18.958Z,102223.23
2019-03-19T18:56:45.222Z,102223.39
2019-03-19T18:59:11.440Z,102234.09
2019-03-19T19:01:37.658Z,102239.33
2019-03-19T19:04:03.968Z,102240.06
2019-03-19T19:06:30.225Z,102239.25
2019-03-19T19:08:56.581Z,102237.47
2019-03-19T19:11:23.046Z,102240.81
2019-03-19T19:13:49.377Z,102243.00
2019-03-19T19:16:15.899Z,102252.45
2019-03-19T19:18:42.244Z,102256.87
2019-03-19T19:21:08.341Z,102255.30
2019-03-19T19:23:34.573Z,102260.38
2019-03-19T19:26:00.888Z,102262.06
2019-03-19T19:28:27.102Z,102269.42
2019-03-19T19:30:53.457Z,102270.98
2019-03-19T19:33:19.688Z,102272.97
2019-03-19T19:35:45.884Z,102285.00
2019-03-19T19:38:12.120Z,102282.89
2019-03-19T19:40:38.325Z,102285.97
2019-03-19T19:43:04.648Z,102290.87
2019-03-19T19:45:30.995Z,102289.50
2019-03-19T19:47:57.083Z,102291.66
2019-03-19T19:50:23.322Z,102289.42
2019-03-19T19:52:49.740Z,102291.34
2019-03-19T19:55:17.207Z,102299.44
2019-03-19T19:57:43.467Z,102290.75
2019-03-19T20:00:15.172Z,102300.61
2019-03-19T20:02:41.416Z,102295.41
2019-03-19T20:05:07.966Z,102295.25
2019-03-19T20:07:34.132Z,102304.41
2019-03-19T20:10:00.464Z,102308.97
2019-03-19T20:12:26.838Z,102311.20
2019-03-19T20:14:53.359Z,102317.97
2019-03-19T20:17:19.845Z,102313.47
2019-03-19T20:19:46.076Z,102328.21
2019-03-19T20:22:12.331Z,102323.41
2019-03-19T20:24:38.606Z,102320.44
2019-03-19T20:27:04.877Z,102326.59
2019-03-19T20:29:31.164Z,102327.33
2019-03-19T20:31:57.282Z,102330.98
2019-03-19T20:34:23.572Z,102328.30
2019-03-19T20:36:49.960Z,102338.52
2019-03-19T20:39:16.447Z,102340.81
2019-03-19T20:41:42.680Z,102334.67
2019-03-19T20:44:10.053Z,102336.95
2019-03-19T20:46:36.285Z,102349.95
2019-03-19T20:49:02.745Z,102343.52
2019-03-19T20:51:29.195Z,102340.70
2019-03-19T20:53:55.422Z,102349.96
2019-03-19T20:56:21.559Z,102345.04
2019-03-19T20:58:47.758Z,102341.99
2019-03-19T21:01:14.189Z,102358.23
2019-03-19T21:03:40.403Z,102351.54
2019-03-19T21:06:06.695Z,102362.34
2019-03-19T21:08:32.925Z,102360.03
2019-03-19T21:10:59.105Z,102362.63
2019-03-19T21:13:25.238Z,102363.62
2019-03-19T21:15:51.562Z,102370.84
2019-03-19T21:18:17.856Z,102369.55
2019-03-19T21:20:44.099Z,102370.59
2019-03-19T21:23:10.350Z,102378.57
2019-03-19T21:25:36.525Z,102379.61
2019-03-19T21:28:13.205Z,102373.17
2019-03-19T21:30:31.162Z,102380.36
2019-03-19T21:32:57.488Z,102386.55
2019-03-19T21:35:24.180Z,102377.54
2019-03-19T21:37:50.415Z,102386.30
2019-03-19T21:40:16.928Z,102384.23
2019-03-19T21:42:43.268Z,102385.80
2019-03-19T21:45:13.193Z,102389.13
2019-03-19T21:47:39.275Z,102386.67
2019-03-19T21:50:15.156Z,102387.33
2019-03-19T21:52:41.341Z,102393.77
2019-03-19T21:55:08.871Z,102385.80
2019-03-19T21:57:35.013Z,102382.19
2019-03-19T22:00:08.384Z,102380.88
2019-03-19T22:02:35.295Z,102387.97
2019-03-19T22:05:01.590Z,102385.23
2019-03-19T22:07:27.909Z,102386.27
2019-03-19T22:09:54.234Z,102382.14
2019-03-19T22:12:21.618Z,102382.39
2019-03-19T22:14:47.827Z,102388.58
2019-03-19T22:17:13.972Z,102391.91
2019-03-19T22:19:40.278Z,102385.34
2019-03-19T22:22:06.499Z,102386.88
2019-03-19T22:24:32.641Z,102382.77
2019-03-19T22:26:58.706Z,102384.92
2019-03-19T22:29:24.807Z,102388.12
2019-03-19T22:31:51.133Z,102379.04
2019-03-19T22:34:17.440Z,102383.64
2019-03-19T22:36:43.515Z,102388.53
2019-03-19T22:39:09.732Z,102384.41
2019-03-19T22:41:36.127Z,102384.66
2019-03-19T22:44:02.505Z,102383.39
2019-03-19T22:46:28.595Z,102382.05
2019-03-19T22:48:54.815Z,102387.45
2019-03-19T22:51:21.015Z,102385.92
2019-03-19T22:53:47.082Z,102389.95
2019-03-19T22:56:14.316Z,102389.80
2019-03-19T22:58:40.391Z,102396.17
2019-03-19T23:01:06.740Z,102388.46
2019-03-19T23:03:34.926Z,102386.16
2019-03-19T23:06:01.095Z,102387.42
2019-03-19T23:08:27.338Z,102390.80
2019-03-19T23:10:53.749Z,102393.80
2019-03-19T23:13:20.038Z,102403.29
2019-03-19T23:15:46.356Z,102399.97
2019-03-19T23:18:12.525Z,102405.11
2019-03-19T23:20:38.823Z,102402.17
2019-03-19T23:23:05.089Z,102402.80
2019-03-19T23:25:32.348Z,102404.34
2019-03-19T23:27:58.725Z,102413.91
2019-03-19T23:30:24.807Z,102415.19
2019-03-19T23:32:51.100Z,102411.45
2019-03-19T23:35:17.369Z,102412.90
2019-03-19T23:37:43.636Z,102415.45
2019-03-19T23:40:11.419Z,102417.26
2019-03-19T23:42:37.613Z,102408.33
2019-03-19T23:45:06.719Z,102411.02
2019-03-19T23:47:32.891Z,102411.02
2019-03-19T23:49:59.018Z,102409.78
2019-03-19T23:52:25.120Z,102404.84
2019-03-19T23:54:51.241Z,102405.56
2019-03-19T23:57:17.436Z,102405.00
2019-03-19T23:59:43.551Z,102399.09
